Time;durP1;ratioP1;P1;durP2;ratioP2;P2;SDS_P1;SDS_P2;PMS_P1;PMS_P2;Temp;Humidity;BMP_temperature;BMP_pressure;BME280_temperature;BME280_humidity;BME280_pressure;Samples;Min_cycle;Max_cycle;Signal;HPM_P1;HPM_P2
2023/01/15 00:01:28;;;;;;;10.85;2.17;;;;;;;8.29;77.97;99678.69;3604685;39;20086;-64
2023/01/15 00:03:57;;;;;;;6.43;1.83;;;;;;;6.97;77.63;99454.38;3604836;39;20214;-64
2023/01/15 00:06:26;;;;;;;4.38;1.45;;;;;;;8.27;77.96;99666.38;3604513;39;20043;-64
2023/01/15 00:08:54;;;;;;;4.68;1.55;;;;;;;8.27;77.94;99677.94;3606454;39;20062;-65
2023/01/15 00:11:21;;;;;;;6.65;2.03;;;;;;;8.25;78.51;99673.69;3609302;39;20071;-65
2023/01/15 00:13:48;;;;;;;5.30;1.95;;;;;;;8.22;79.14;99663.19;3609971;39;20050;-64
2023/01/15 00:16:23;;;;;;;5.07;1.58;;;;;;;8.23;79.76;99660.41;3611303;39;20123;-64
2023/01/15 00:18:59;;;;;;;8.75;1.85;;;;;;;8.19;78.84;99655.38;3605847;39;20557;-65
2023/01/15 00:21:27;;;;;;;5.82;2.33;;;;;;;8.26;79.57;99670.03;3608113;39;20054;-65
2023/01/15 00:29:25;;;;;;;4.65;1.23;;;;;;;8.09;76.98;99626.59;3608755;39;20470;-65
2023/01/15 00:32:05;;;;;;;9.80;1.80;;;;;;;8.21;75.32;99662.31;3606384;39;20056;-64
2023/01/15 00:34:32;;;;;;;5.93;2.00;;;;;;;8.24;75.26;99661.25;3605092;39;20063;-64
2023/01/15 00:36:58;;;;;;;5.28;1.63;;;;;;;8.05;74.20;99627.75;3606641;39;20359;-65
2023/01/15 00:39:25;;;;;;;6.90;1.63;;;;;;;8.13;74.67;99641.47;3608272;39;20063;-65
2023/01/15 00:41:52;;;;;;;3.63;1.20;;;;;;;8.19;75.17;99660.72;3608544;39;20051;-63
2023/01/15 00:44:18;;;;;;;6.93;1.80;;;;;;;8.19;75.06;99676.78;3610052;39;20374;-63
2023/01/15 00:46:45;;;;;;;8.32;1.77;;;;;;;8.17;74.33;99670.69;3609594;39;20047;-63
2023/01/15 00:49:11;;;;;;;6.20;1.65;;;;;;;7.98;74.03;99647.88;3606791;39;20047;-65
2023/01/15 00:51:36;;;;;;;5.35;1.70;;;;;;;8.12;73.69;99679.06;3606641;39;20117;-62
2023/01/15 00:54:03;;;;;;;7.38;2.20;;;;;;;8.12;72.99;99681.72;3608286;39;20055;-65
2023/01/15 00:56:29;;;;;;;7.75;1.52;;;;;;;8.11;73.47;99686.19;3607173;39;20059;-63
2023/01/15 00:58:55;;;;;;;9.48;1.83;;;;;;;8.08;73.63;99682.88;3607334;39;20082;-65
2023/01/15 01:01:21;;;;;;;9.13;1.63;;;;;;;8.10;72.88;99676.47;3610011;39;20054;-63
2023/01/15 01:03:49;;;;;;;7.93;1.90;;;;;;;8.09;72.77;99684.63;3609776;39;20393;-62
2023/01/15 01:06:15;;;;;;;9.10;1.70;;;;;;;8.08;72.60;99688.22;3610281;39;20058;-62
2023/01/15 01:08:44;;;;;;;7.53;1.77;;;;;;;8.03;73.15;99675.19;3610140;39;20094;-65
2023/01/15 01:11:14;;;;;;;6.72;1.73;;;;;;;8.08;72.35;99693.59;3611851;39;20381;-62
2023/01/15 01:13:40;;;;;;;7.28;1.75;;;;;;;8.09;73.18;99682.78;3610211;39;20082;-63
2023/01/15 01:16:30;;;;;;;5.47;1.45;;;;;;;8.08;73.06;99694.44;3613877;39;20445;-63
2023/01/15 01:19:00;;;;;;;7.07;1.83;;;;;;;8.06;72.43;99685.69;3611923;39;20705;-65
2023/01/15 01:21:27;;;;;;;7.15;1.75;;;;;;;8.09;72.45;99684.63;3610204;39;20053;-63
2023/01/15 01:23:52;;;;;;;6.85;1.48;;;;;;;8.10;72.63;99683.66;3611353;39;20397;-63
2023/01/15 01:26:18;;;;;;;4.68;1.40;;;;;;;8.07;72.23;99699.91;3613058;39;20062;-64
2023/01/15 01:28:49;;;;;;;8.48;1.75;;;;;;;8.09;72.50;99695.31;3612834;39;20077;-64
2023/01/15 01:31:16;;;;;;;8.38;1.50;;;;;;;8.09;71.66;99679.25;3610852;39;20045;-64
2023/01/15 01:33:42;;;;;;;8.93;2.10;;;;;;;8.09;71.80;99680.13;3609334;39;20141;-63
2023/01/15 01:36:08;;;;;;;8.02;1.88;;;;;;;8.09;72.22;99696.19;3612754;39;20054;-64
2023/01/15 01:38:33;;;;;;;6.25;1.40;;;;;;;8.10;71.60;99687.16;3609753;39;20070;-63
2023/01/15 01:40:59;;;;;;;10.57;2.33;;;;;;;8.08;71.29;99689.09;3611362;39;20055;-63
2023/01/15 01:43:28;;;;;;;8.48;1.70;;;;;;;8.12;71.44;99701.31;3613760;39;20046;-64
2023/01/15 01:45:55;;;;;;;8.20;1.60;;;;;;;8.12;71.35;99697.78;3610751;39;20338;-63
2023/01/15 01:48:33;;;;;;;5.88;1.15;;;;;;;8.09;71.04;99696.19;3611549;39;20062;-64
2023/01/15 01:51:04;;;;;;;11.25;2.20;;;;;;;8.10;71.53;99699.69;3614232;39;20050;-64
2023/01/15 01:53:31;;;;;;;8.10;2.08;;;;;;;8.11;70.73;99680.84;3610555;39;20112;-63
2023/01/15 01:55:59;;;;;;;7.53;1.33;;;;;;;8.11;70.86;99688.03;3610855;39;20087;-62
2023/01/15 01:58:31;;;;;;;6.38;2.00;;;;;;;8.08;70.58;99682.88;3612230;39;20304;-62
2023/01/15 02:01:00;;;;;;;5.35;1.52;;;;;;;8.10;70.96;99687.16;3610213;39;20384;-63
2023/01/15 02:03:35;;;;;;;8.90;1.52;;;;;;;8.09;71.32;99690.81;3608406;39;20043;-63
2023/01/15 02:06:07;;;;;;;7.18;2.28;;;;;;;8.08;71.14;99689.09;3609456;39;20054;-63
2023/01/15 02:08:33;;;;;;;8.13;1.25;;;;;;;8.08;69.58;99689.09;3611203;39;20082;-63
2023/01/15 02:11:01;;;;;;;7.88;1.50;;;;;;;8.11;70.25;99699.56;3612455;39;20373;-64
2023/01/15 02:13:40;;;;;;;8.65;1.65;;;;;;;8.10;70.88;99703.22;3608895;39;20063;-63
2023/01/15 02:16:49;;;;;;;10.18;2.03;;;;;;;8.11;69.90;99693.38;3605160;39;20051;-63
2023/01/15 02:19:55;;;;;;;7.20;2.25;;;;;;;8.08;70.41;99707.81;3607774;39;20055;-63
2023/01/15 02:22:50;;;;;;;9.02;1.73;;;;;;;8.05;69.67;99689.31;3606361;39;20567;-65
2023/01/15 02:25:49;;;;;;;8.73;1.60;;;;;;;8.08;69.61;99693.59;3607688;39;20058;-63
2023/01/15 02:28:26;;;;;;;8.45;1.73;;;;;;;8.06;70.56;99679.47;3609370;39;20047;-63
2023/01/15 02:31:07;;;;;;;5.28;1.63;;;;;;;8.06;69.62;99684.84;3607078;39;20306;-63
2023/01/15 02:33:41;;;;;;;5.28;1.77;;;;;;;8.03;70.30;99675.19;3605799;39;20111;-63
2023/01/15 02:36:13;;;;;;;;;;;;;;;7.97;70.10;99664.91;3604866;39;20373;-63
2023/01/15 02:38:47;;;;;;;7.05;1.67;;;;;;;8.04;69.48;99673.38;3606327;39;19931;-62
2023/01/15 02:41:21;;;;;;;9.73;1.85;;;;;;;8.04;70.12;99676.03;3607625;39;20063;-63
2023/01/15 02:43:53;;;;;;;11.95;1.77;;;;;;;8.04;69.21;99676.03;3609462;39;21422;-64
2023/01/15 02:46:29;;;;;;;8.30;1.77;;;;;;;8.03;69.68;99685.03;3609711;39;20381;-62
2023/01/15 02:49:00;;;;;;;5.20;1.67;;;;;;;8.01;69.20;99666.41;3605124;39;20048;-63
2023/01/15 02:51:37;;;;;;;10.23;1.65;;;;;;;7.96;69.58;99656.97;3599335;39;20063;-63
2023/01/15 02:54:13;;;;;;;8.18;1.70;;;;;;;7.93;68.90;99667.88;3607316;39;20090;-63
2023/01/15 02:56:43;;;;;;;8.07;1.55;;;;;;;7.97;69.78;99669.41;3606890;39;20059;-64
2023/01/15 02:59:20;;;;;;;8.45;2.20;;;;;;;7.97;69.29;99653.34;3606676;39;20065;-63
2023/01/15 03:02:09;;;;;;;5.93;1.50;;;;;;;7.92;68.46;99650.97;3607860;39;20059;-63
2023/01/15 03:04:49;;;;;;;7.80;1.65;;;;;;;7.94;68.71;99665.13;3605202;39;20063;-62
2023/01/15 03:07:34;;;;;;;6.07;1.45;;;;;;;7.96;68.80;99673.91;3605897;39;20051;-63
2023/01/15 03:10:02;;;;;;;8.45;1.67;;;;;;;7.94;68.45;99670.47;3605187;39;20275;-63
2023/01/15 03:13:02;;;;;;;8.88;1.85;;;;;;;7.95;68.39;99669.50;3604810;39;20058;-63
2023/01/15 03:18:52;;;;;;;6.87;2.13;;;;;;;7.93;68.56;99674.13;3606551;39;20054;-64
2023/01/15 03:21:30;;;;;;;6.95;1.85;;;;;;;7.93;68.69;99682.16;3608792;39;20567;-64
2023/01/15 03:24:04;;;;;;;7.57;1.33;;;;;;;7.91;68.41;99668.00;3608330;39;20070;-64
2023/01/15 03:26:29;;;;;;;4.68;1.50;;;;;;;7.94;68.60;99666.94;3606501;39;20047;-64
2023/01/15 03:28:56;;;;;;;9.05;1.52;;;;;;;7.92;68.41;99667.03;3607113;39;20055;-64
2023/01/15 03:31:22;;;;;;;8.85;1.73;;;;;;;7.91;68.92;99660.84;3608607;39;20058;-63
2023/01/15 03:33:48;;;;;;;9.60;1.80;;;;;;;7.90;68.78;99664.47;3603608;39;20070;-64
2023/01/15 03:36:13;;;;;;;6.97;1.42;;;;;;;7.87;67.89;99661.16;3605626;39;20047;-64
2023/01/15 03:38:40;;;;;;;8.15;1.90;;;;;;;7.75;67.67;99638.78;3605390;39;20413;-64
2023/01/15 03:41:37;;;;;;;6.22;1.85;;;;;;;7.91;67.21;99660.84;3605719;39;20294;-65
2023/01/15 03:44:31;;;;;;;11.48;2.10;;;;;;;7.89;68.35;99665.44;3607034;39;20059;-64
2023/01/15 03:47:23;;;;;;;7.85;1.67;;;;;;;7.89;67.50;99672.59;3607327;39;20396;-64
2023/01/15 03:50:12;;;;;;;5.20;1.50;;;;;;;7.93;67.49;99673.25;3609284;39;20140;-64
2023/01/15 03:53:06;;;;;;;8.40;1.38;;;;;;;7.93;66.96;99668.78;3607613;39;20180;-64
2023/01/15 03:55:46;;;;;;;7.43;1.63;;;;;;;7.92;67.48;99672.38;3607789;39;21345;-64
2023/01/15 03:58:40;;;;;;;7.85;1.90;;;;;;;7.92;66.70;99672.38;3607731;39;20120;-64
2023/01/15 04:01:12;;;;;;;;;;;;;;;7.93;67.06;99678.59;3606077;39;20055;-65
2023/01/15 04:03:39;;;;;;;7.88;1.67;;;;;;;7.90;66.96;99669.84;3608175;39;20371;-64
2023/01/15 04:06:06;;;;;;;10.32;1.90;;;;;;;7.81;67.59;99653.56;3609761;39;20294;-64
2023/01/15 04:08:39;;;;;;;10.10;2.35;;;;;;;7.88;66.99;99661.03;3610183;39;20262;-64
2023/01/15 04:11:05;;;;;;;10.10;1.63;;;;;;;7.85;67.08;99644.34;3608588;39;20293;-63
2023/01/15 04:13:32;;;;;;;9.85;2.33;;;;;;;7.94;66.79;99664.28;3607573;39;20062;-64
2023/01/15 04:15:58;;;;;;;8.27;1.67;;;;;;;7.93;67.04;99670.56;3607352;39;20047;-64
2023/01/15 04:18:23;;;;;;;10.68;1.80;;;;;;;7.90;66.69;99669.84;3606924;39;20073;-64
2023/01/15 04:20:49;;;;;;;14.80;1.88;;;;;;;7.89;66.92;99667.25;3605456;39;20067;-63
2023/01/15 04:23:15;;;;;;;7.68;1.33;;;;;;;7.88;66.58;99671.75;3608040;39;20053;-63
2023/01/15 04:25:41;;;;;;;6.32;1.60;;;;;;;7.85;66.83;99665.75;3609081;39;20201;-63
2023/01/15 04:28:08;;;;;;;7.95;1.52;;;;;;;7.84;66.92;99662.22;3611687;39;20144;-64
2023/01/15 04:30:35;;;;;;;9.77;1.58;;;;;;;7.84;66.87;99664.06;3607650;39;20402;-64
2023/01/15 04:33:01;;;;;;;7.93;2.03;;;;;;;7.82;66.64;99665.97;3606101;39;21512;-63
2023/01/15 04:35:27;;;;;;;8.02;1.63;;;;;;;7.76;67.42;99659.22;3603942;39;20064;-63
2023/01/15 04:37:59;;;;;;;8.05;1.92;;;;;;;7.67;67.26;99659.84;3605914;39;20062;-63
2023/01/15 04:45:58;;;;;;;5.32;1.30;;;;;;;7.71;68.23;99677.41;3609766;39;20309;-63
2023/01/15 04:48:24;;;;;;;8.80;1.92;;;;;;;7.75;68.31;99686.09;3609282;39;20049;-63
2023/01/15 04:50:50;;;;;;;7.55;1.75;;;;;;;7.74;67.94;99687.03;3607515;39;20063;-63
2023/01/15 04:53:15;;;;;;;7.43;1.48;;;;;;;7.77;68.37;99692.16;3605446;39;20054;-63
2023/01/15 04:55:41;;;;;;;8.45;1.88;;;;;;;7.76;68.15;99690.47;3606397;39;20055;-63
2023/01/15 04:58:07;;;;;;;10.32;1.85;;;;;;;7.74;67.97;99689.69;3609527;39;20059;-63
2023/01/15 05:00:33;;;;;;;11.25;1.95;;;;;;;7.66;68.18;99676.88;3605105;39;20063;-63
2023/01/15 05:02:58;;;;;;;9.63;2.05;;;;;;;7.70;67.92;99693.56;3607254;39;20091;-63
2023/01/15 05:05:24;;;;;;;8.57;1.70;;;;;;;7.66;68.47;99679.53;3609648;39;20085;-63
2023/01/15 05:07:50;;;;;;;10.23;2.03;;;;;;;7.64;68.66;99673.44;3607474;39;20298;-62
2023/01/15 05:10:16;;;;;;;8.00;1.60;;;;;;;7.65;68.84;99676.00;3604753;39;20047;-63
2023/01/15 05:12:41;;;;;;;9.65;1.67;;;;;;;7.64;68.92;99684.13;3604854;39;20062;-63
2023/01/15 05:15:07;;;;;;;7.80;2.15;;;;;;;7.62;69.16;99688.75;3608393;39;20047;-63
2023/01/15 05:17:33;;;;;;;8.82;2.15;;;;;;;7.67;68.58;99678.56;3607226;39;20314;-62
2023/01/15 05:19:59;;;;;;;5.95;1.95;;;;;;;7.67;68.63;99682.13;3606866;39;20062;-63
2023/01/15 05:22:25;;;;;;;8.07;1.77;;;;;;;7.63;68.82;99659.19;3607254;39;20070;-63
2023/01/15 05:24:50;;;;;;;7.88;1.83;;;;;;;7.71;68.49;99674.75;3606686;39;20061;-63
2023/01/15 05:27:16;;;;;;;11.20;2.28;;;;;;;7.72;68.93;99665.75;3605876;39;20043;-63
2023/01/15 05:29:42;;;;;;;9.88;1.90;;;;;;;7.67;68.57;99671.44;3607869;39;20140;-62
2023/01/15 05:32:07;;;;;;;6.38;1.48;;;;;;;7.68;68.12;99673.13;3608895;39;20063;-62
2023/01/15 05:34:33;;;;;;;6.88;1.58;;;;;;;7.70;68.13;99672.16;3608113;39;20270;-63
2023/01/15 05:36:58;;;;;;;11.63;2.50;;;;;;;7.69;67.93;99660.59;3609022;39;20098;-63
2023/01/15 05:39:24;;;;;;;10.68;1.90;;;;;;;7.63;68.78;99656.53;3605622;39;20058;-63
2023/01/15 05:41:50;;;;;;;11.27;2.00;;;;;;;7.64;68.69;99658.25;3605631;39;20392;-63
2023/01/15 05:44:29;;;;;;;8.07;1.25;;;;;;;7.61;68.60;99644.22;3609218;39;20436;-63
2023/01/15 05:47:01;;;;;;;12.85;1.88;;;;;;;7.71;68.35;99656.03;3606970;39;20051;-63
2023/01/15 05:49:30;;;;;;;9.80;2.15;;;;;;;7.66;68.30;99645.63;3607765;39;20050;-63
2023/01/15 05:51:57;;;;;;;6.82;1.77;;;;;;;7.70;69.10;99658.78;3607629;39;20047;-63
2023/01/15 05:54:30;;;;;;;7.85;1.55;;;;;;;7.72;68.56;99654.19;3606678;39;20055;-63
2023/01/15 05:56:56;;;;;;;8.80;1.80;;;;;;;7.72;68.82;99657.72;3611632;39;20374;-62
2023/01/15 05:59:26;;;;;;;8.73;1.92;;;;;;;7.64;69.69;99655.59;3609566;39;20055;-63
2023/01/15 06:01:52;;;;;;;6.88;2.03;;;;;;;7.68;69.73;99654.41;3609831;39;20378;-62
2023/01/15 06:04:20;;;;;;;9.80;2.08;;;;;;;7.67;69.15;99651.81;3610854;39;20310;-62
2023/01/15 06:06:48;;;;;;;10.68;2.13;;;;;;;7.68;70.11;99665.09;3610134;39;20062;-62
2023/01/15 06:09:14;;;;;;;11.30;2.70;;;;;;;7.72;69.25;99654.19;3608193;39;20087;-63
2023/01/15 06:11:41;;;;;;;7.40;1.77;;;;;;;7.75;70.07;99656.66;3605777;39;20074;-61
2023/01/15 06:14:09;;;;;;;7.85;1.85;;;;;;;7.74;69.36;99668.31;3606836;39;20063;-65
2023/01/15 06:16:34;;;;;;;10.55;2.15;;;;;;;7.73;69.72;99672.81;3608610;39;20058;-63
2023/01/15 06:19:03;;;;;;;8.20;1.85;;;;;;;7.74;69.16;99679.00;3608424;39;20420;-62
2023/01/15 06:21:32;;;;;;;13.98;2.67;;;;;;;7.78;69.45;99689.41;3606921;39;20059;-63
2023/01/15 06:23:57;;;;;;;14.43;2.80;;;;;;;7.71;69.08;99681.88;3607249;39;20305;-62
2023/01/15 06:26:23;;;;;;;6.63;1.90;;;;;;;7.71;69.28;99692.59;3604667;39;20069;-62
2023/01/15 06:28:50;;;;;;;8.18;1.67;;;;;;;7.65;68.77;99697.41;3604830;39;20099;-62
2023/01/15 06:31:20;;;;;;;8.68;1.80;;;;;;;7.54;68.94;99662.50;3607541;39;20361;-63
2023/01/15 06:33:46;;;;;;;8.48;1.77;;;;;;;7.51;69.25;99664.53;3607764;39;20065;-62
2023/01/15 06:36:21;;;;;;;11.00;1.98;;;;;;;7.60;68.50;99696.84;3608759;39;20294;-63
2023/01/15 06:38:49;;;;;;;6.20;1.73;;;;;;;7.52;68.72;99696.53;3605707;39;20397;-62
2023/01/15 06:49:40;;;;;;;9.75;2.08;;;;;;;7.38;68.74;99678.72;3605642;39;20041;-63
2023/01/15 06:52:06;;;;;;;8.82;1.88;;;;;;;7.40;69.03;99692.00;3605636;39;20055;-67
2023/01/15 06:54:33;;;;;;;8.18;1.45;;;;;;;7.37;69.36;99687.72;3606921;39;20108;-62
2023/01/15 06:56:58;;;;;;;10.27;2.00;;;;;;;7.33;68.54;99690.72;3607178;39;20047;-62
2023/01/15 06:59:24;;;;;;;8.10;1.60;;;;;;;7.31;68.90;99703.31;3606743;39;20049;-61
2023/01/15 07:01:50;;;;;;;10.23;1.90;;;;;;;7.30;68.54;99702.44;3604608;39;20062;-63
2023/01/15 07:04:15;;;;;;;7.57;1.88;;;;;;;7.27;69.41;99702.66;3607418;39;20049;-62
2023/01/15 07:06:41;;;;;;;8.90;1.58;;;;;;;7.26;69.23;99692.06;3607346;39;20062;-62
2023/01/15 07:09:07;;;;;;;7.20;1.50;;;;;;;7.28;69.65;99698.16;3609894;39;20058;-62
2023/01/15 07:11:32;;;;;;;8.05;1.45;;;;;;;6.51;69.49;99583.84;3606775;39;20931;-63
2023/01/15 07:14:07;;;;;;;9.85;1.80;;;;;;;7.15;69.88;99698.97;3596869;39;20083;-62
2023/01/15 07:16:35;;;;;;;8.30;1.77;;;;;;;7.14;70.07;99699.94;3606811;39;20051;-63
2023/01/15 07:19:01;;;;;;;8.10;1.80;;;;;;;7.13;70.39;99710.72;3603265;39;20063;-62
2023/01/15 07:21:27;;;;;;;8.60;1.80;;;;;;;7.15;69.53;99719.50;3603914;39;20405;-62
2023/01/15 07:23:54;;;;;;;11.02;2.65;;;;;;;7.14;70.07;99715.97;3598607;39;20114;-63
2023/01/15 07:26:19;;;;;;;8.27;1.50;;;;;;;7.16;70.14;99718.53;3604463;39;20143;-62
2023/01/15 07:28:45;;;;;;;12.38;1.67;;;;;;;7.16;69.60;99726.53;3606958;39;20649;-62
2023/01/15 07:31:11;;;;;;;7.18;1.48;;;;;;;7.19;69.70;99731.69;3608981;39;20069;-63
2023/01/15 07:33:36;;;;;;;6.43;1.48;;;;;;;7.18;69.06;99722.81;3607137;39;20062;-62
2023/01/15 07:36:04;;;;;;;7.72;1.48;;;;;;;7.22;67.54;99720.81;3604687;39;20276;-62
2023/01/15 07:38:30;;;;;;;8.80;1.50;;;;;;;7.27;67.61;99736.56;3602357;39;20136;-63
2023/01/15 07:51:57;;;;;;;6.50;1.38;;;;;;;7.37;66.85;99741.19;3605856;39;20594;-63
2023/01/15 07:54:24;;;;;;;7.25;1.77;;;;;;;7.20;66.19;99723.59;3605852;39;20091;-63
2023/01/15 07:56:52;;;;;;;6.13;1.40;;;;;;;7.35;66.32;99736.88;3607705;39;20053;-62
2023/01/15 07:59:19;;;;;;;4.90;1.70;;;;;;;7.43;66.37;99755.97;3602261;39;20163;-63
2023/01/15 08:01:44;;;;;;;8.77;1.63;;;;;;;7.36;66.23;99754.66;3604330;39;20059;-62
2023/01/15 08:04:10;;;;;;;4.80;1.73;;;;;;;7.36;65.72;99760.00;3595234;39;20062;-65
2023/01/15 08:06:36;;;;;;;6.60;2.00;;;;;;;7.30;66.00;99750.56;3602936;39;20072;-63
2023/01/15 08:09:03;;;;;;;3.88;1.50;;;;;;;7.26;65.14;99756.19;3606595;39;20065;-62
2023/01/15 08:16:57;;;;;;;5.90;1.73;;;;;;;7.11;65.71;99758.06;3602691;39;20058;-63
2023/01/15 08:19:24;;;;;;;4.70;1.38;;;;;;;7.07;66.41;99756.53;3602522;39;20063;-63
2023/01/15 08:21:50;;;;;;;6.18;1.30;;;;;;;7.00;66.41;99758.75;3603509;39;20051;-63
2023/01/15 08:24:16;;;;;;;4.30;1.40;;;;;;;6.97;66.16;99773.16;3604157;39;20306;-63
2023/01/15 08:26:42;;;;;;;5.22;1.35;;;;;;;6.94;66.34;99772.50;3604554;39;20091;-63
2023/01/15 08:29:08;;;;;;;5.53;1.23;;;;;;;6.91;66.34;99756.66;3606801;39;20066;-63
2023/01/15 08:31:34;;;;;;;6.85;1.25;;;;;;;6.85;66.03;99767.75;3603971;39;20097;-64
2023/01/15 08:33:59;;;;;;;7.68;1.27;;;;;;;6.85;66.11;99759.72;3608353;39;20852;-64
2023/01/15 08:36:25;;;;;;;5.35;1.27;;;;;;;6.84;66.70;99763.34;3605519;39;20066;-64
2023/01/15 08:38:51;;;;;;;3.05;1.00;;;;;;;6.81;66.49;99758.22;3603898;39;20065;-64
2023/01/15 08:41:17;;;;;;;5.80;1.40;;;;;;;6.84;66.62;99756.19;3607701;39;20046;-64
2023/01/15 08:43:44;;;;;;;5.72;1.30;;;;;;;6.86;66.99;99762.31;3605398;39;20683;-64
2023/01/15 08:46:11;;;;;;;5.43;1.35;;;;;;;6.78;66.98;99755.72;3602480;39;20686;-63
2023/01/15 08:48:36;;;;;;;7.35;1.27;;;;;;;6.54;67.20;99705.59;3604319;39;20066;-63
2023/01/15 08:51:09;;;;;;;6.20;0.95;;;;;;;6.90;67.00;99757.63;3605691;39;20055;-62
2023/01/15 08:53:35;;;;;;;8.75;1.60;;;;;;;6.88;67.19;99757.75;3602304;39;20408;-66
2023/01/15 08:56:01;;;;;;;8.85;1.58;;;;;;;6.76;66.86;99722.94;3604102;39;20059;-65
2023/01/15 08:58:30;;;;;;;8.40;1.38;;;;;;;6.98;67.26;99744.66;3607789;39;20055;-65
2023/01/15 09:01:02;;;;;;;5.15;1.30;;;;;;;6.95;67.09;99766.22;3607711;39;20047;-64
2023/01/15 09:03:27;;;;;;;7.28;1.15;;;;;;;7.08;67.43;99750.25;3604841;39;20062;-64
2023/01/15 09:05:53;;;;;;;8.65;2.08;;;;;;;7.07;67.10;99752.06;3607572;39;20304;-64
2023/01/15 09:08:18;;;;;;;6.78;1.50;;;;;;;7.08;66.40;99744.91;3605299;39;20083;-65
2023/01/15 09:10:44;;;;;;;8.90;1.55;;;;;;;7.12;67.11;99725.91;3606030;39;20074;-64
2023/01/15 09:13:10;;;;;;;6.00;1.45;;;;;;;7.15;67.23;99733.72;3605582;39;20298;-65
2023/01/15 09:15:35;;;;;;;9.38;1.50;;;;;;;7.17;67.21;99731.81;3604110;39;20401;-65
2023/01/15 09:18:01;;;;;;;5.38;1.13;;;;;;;7.25;66.48;99733.13;3604540;39;20720;-64
2023/01/15 09:20:26;;;;;;;11.23;1.90;;;;;;;7.28;66.28;99735.59;3604660;39;20051;-63
2023/01/15 09:22:52;;;;;;;6.75;1.50;;;;;;;7.31;66.27;99760.28;3603357;39;20058;-63
2023/01/15 09:25:18;;;;;;;9.05;1.75;;;;;;;7.37;66.61;99738.50;3610865;39;20055;-63
2023/01/15 09:27:45;;;;;;;13.65;2.53;;;;;;;7.39;66.00;99751.75;3607311;39;20156;-64
2023/01/15 09:30:20;;;;;;;6.80;1.60;;;;;;;7.45;65.50;99740.66;3605196;39;20275;-63
2023/01/15 09:32:47;;;;;;;9.57;1.75;;;;;;;7.49;65.32;99744.00;3605979;39;20127;-63
2023/01/15 09:35:13;;;;;;;11.60;1.65;;;;;;;7.59;65.24;99750.47;3605928;39;20378;-64
2023/01/15 09:37:39;;;;;;;7.82;1.80;;;;;;;7.68;65.46;99750.69;3608427;39;20039;-65
2023/01/15 09:40:08;;;;;;;8.85;1.75;;;;;;;7.78;64.54;99744.72;3604644;39;20444;-64
2023/01/15 09:43:02;;;;;;;9.40;1.73;;;;;;;7.88;64.30;99743.13;3608518;39;20054;-64
2023/01/15 09:45:49;;;;;;;8.07;1.60;;;;;;;7.93;63.99;99727.63;3608403;39;20107;-64
2023/01/15 09:48:49;;;;;;;10.23;1.83;;;;;;;8.04;63.56;99767.88;3608808;39;20059;-64
2023/01/15 09:52:11;;;;;;;7.68;1.60;;;;;;;8.01;62.61;99749.38;3603804;39;20046;-64
2023/01/15 09:55:03;;;;;;;18.15;4.85;;;;;;;8.03;62.67;99751.94;3563392;40;20064;-64
2023/01/15 09:57:32;;;;;;;10.57;1.90;;;;;;;8.09;63.07;99760.41;3605211;39;20045;-64
2023/01/15 10:00:02;;;;;;;7.70;1.50;;;;;;;8.12;62.77;99770.91;3606771;39;20052;-64
2023/01/15 10:02:33;;;;;;;7.45;1.33;;;;;;;8.16;61.81;99762.66;3598204;39;20048;-66
2023/01/15 10:05:17;;;;;;;9.77;1.77;;;;;;;8.29;62.18;99760.84;3603574;39;20058;-65
2023/01/15 10:08:18;;;;;;;9.00;1.90;;;;;;;8.36;61.00;99778.19;3608459;39;20055;-64
2023/01/15 10:10:49;;;;;;;9.23;1.55;;;;;;;8.29;61.70;99771.56;3609962;39;20135;-66
2023/01/15 10:13:45;;;;;;;6.20;1.55;;;;;;;8.37;61.81;99772.75;3606111;39;20055;-65
2023/01/15 10:16:20;;;;;;;6.05;1.58;;;;;;;8.40;61.04;99785.06;3605053;39;20349;-66
2023/01/15 10:18:46;;;;;;;6.95;1.50;;;;;;;8.40;61.26;99798.47;3606983;39;20046;-65
2023/01/15 10:21:40;;;;;;;8.52;1.88;;;;;;;8.37;60.81;99770.06;3604815;39;20067;-65
2023/01/15 10:24:16;;;;;;;6.15;1.55;;;;;;;8.43;60.39;99782.19;3607692;39;20055;-65
2023/01/15 10:26:56;;;;;;;6.15;1.63;;;;;;;8.61;61.27;99796.13;3609427;39;20097;-65
2023/01/15 10:29:41;;;;;;;8.05;1.65;;;;;;;8.62;60.95;99779.06;3607514;39;20326;-66
2023/01/15 10:32:13;;;;;;;9.77;1.95;;;;;;;8.57;60.43;99787.44;3611079;39;20057;-66
2023/01/15 10:35:26;;;;;;;11.30;2.00;;;;;;;8.41;61.04;99799.34;3606562;39;20059;-65
2023/01/15 10:38:14;;;;;;;8.10;1.70;;;;;;;8.36;61.45;99780.88;3606485;39;20379;-66
2023/01/15 10:40:54;;;;;;;5.07;1.45;;;;;;;8.50;61.99;99783.50;3604655;39;20166;-64
2023/01/15 10:43:39;;;;;;;5.35;1.52;;;;;;;8.79;60.18;99791.28;3608973;39;20042;-64
2023/01/15 10:46:15;;;;;;;7.57;2.20;;;;;;;9.01;59.58;99782.59;3606896;39;20047;-64
2023/01/15 10:48:55;;;;;;;6.88;1.42;;;;;;;9.22;59.03;99783.69;3605818;39;20055;-64
2023/01/15 10:51:47;;;;;;;8.50;1.45;;;;;;;9.29;57.82;99784.97;3604168;39;20331;-64
2023/01/15 10:54:41;;;;;;;7.75;1.38;;;;;;;9.38;58.24;99766.47;3606631;39;20050;-64
2023/01/15 10:57:20;;;;;;;8.75;1.33;;;;;;;9.31;57.65;99747.28;3605210;39;20055;-64
2023/01/15 10:59:57;;;;;;;6.75;1.40;;;;;;;9.30;58.01;99759.84;3608485;39;20051;-64
2023/01/15 11:02:44;;;;;;;5.28;1.33;;;;;;;9.38;58.05;99755.75;3606827;39;20055;-65
2023/01/15 11:05:20;;;;;;;4.72;1.50;;;;;;;9.08;57.16;99708.78;3609578;39;20425;-65
2023/01/15 11:07:52;;;;;;;5.20;1.40;;;;;;;9.37;56.96;99770.97;3607169;39;20051;-64
2023/01/15 11:10:21;;;;;;;3.60;1.50;;;;;;;9.33;58.48;99763.28;3605501;39;20051;-65
2023/01/15 11:21:26;;;;;;;3.20;0.88;;;;;;;9.51;58.02;99768.16;3607280;39;20074;-64
2023/01/15 11:23:57;;;;;;;4.47;1.25;;;;;;;9.74;56.46;99779.84;3606245;39;20058;-63
2023/01/15 11:26:31;;;;;;;2.22;1.17;;;;;;;9.84;55.85;99812.22;3605414;39;20051;-64
2023/01/15 11:29:10;;;;;;;5.05;1.65;;;;;;;9.20;56.55;99669.50;3603778;39;20067;-64
2023/01/15 11:31:39;;;;;;;2.80;0.95;;;;;;;9.89;56.73;99777.81;3606614;39;20390;-64
2023/01/15 11:34:19;;;;;;;2.25;1.00;;;;;;;9.87;56.86;99752.91;3603071;39;20074;-64
2023/01/15 11:36:46;;;;;;;3.03;1.10;;;;;;;9.89;56.28;99783.16;3603315;39;20071;-64
2023/01/15 11:39:29;;;;;;;2.72;1.05;;;;;;;9.67;56.78;99777.72;3604758;39;20346;-64
2023/01/15 11:50:59;;;;;;;3.15;0.98;;;;;;;9.18;58.31;99787.56;3606031;39;20042;-64
2023/01/15 11:53:33;;;;;;;5.13;1.13;;;;;;;9.11;58.62;99785.44;3603872;39;20070;-64
2023/01/15 11:56:07;;;;;;;4.95;1.00;;;;;;;9.10;58.60;99786.41;3606923;39;20054;-64
2023/01/15 11:58:47;;;;;;;1.95;0.68;;;;;;;8.96;59.07;99760.59;3606831;39;20051;-64
2023/01/15 12:01:38;;;;;;;5.65;1.42;;;;;;;9.07;59.03;99774.09;3604308;39;20078;-64
2023/01/15 12:04:28;;;;;;;6.65;1.50;;;;;;;9.10;58.73;99771.16;3606901;39;20275;-65
2023/01/15 12:06:55;;;;;;;5.05;1.60;;;;;;;9.03;59.55;99765.38;3605599;39;20039;-64
2023/01/15 12:09:53;;;;;;;3.97;1.15;;;;;;;9.00;59.06;99776.34;3608026;39;20059;-65
2023/01/15 12:12:51;;;;;;;6.50;1.30;;;;;;;8.90;59.13;99772.63;3596672;39;20063;-64
2023/01/15 12:15:39;;;;;;;6.57;1.10;;;;;;;8.65;59.82;99735.13;3604706;39;20051;-65
2023/01/15 12:18:41;;;;;;;1.92;0.73;;;;;;;8.89;59.64;99773.59;3605558;39;20051;-65
2023/01/15 12:21:33;;;;;;;3.35;1.50;;;;;;;8.87;60.44;99767.47;3602710;39;20059;-65
2023/01/15 12:24:23;;;;;;;4.00;0.70;;;;;;;8.83;60.30;99782.91;3596446;39;20050;-62
2023/01/15 12:27:30;;;;;;;1.55;0.85;;;;;;;8.73;60.17;99755.06;3604472;39;20088;-63
2023/01/15 12:30:23;;;;;;;6.85;1.30;;;;;;;8.67;60.29;99765.38;3604515;39;20384;-62
2023/01/15 12:33:12;;;;;;;5.47;1.38;;;;;;;8.62;60.11;99768.34;3603097;39;20074;-64
2023/01/15 12:35:47;;;;;;;10.15;3.65;;;;;;;8.66;60.60;99763.63;3607397;39;20328;-65
2023/01/15 12:39:14;;;;;;;10.27;3.65;;;;;;;8.67;60.18;99760.00;3607098;39;20420;-63
2023/01/15 12:45:06;;;;;;;2.78;0.70;;;;;;;8.69;60.27;99795.56;3604798;39;20070;-63
2023/01/15 12:47:45;;;;;;;3.85;0.90;;;;;;;8.66;60.74;99771.66;3601961;39;20047;-63
2023/01/15 12:50:35;;;;;;;11.23;1.63;;;;;;;8.63;61.44;99769.22;3605000;39;20051;-63
2023/01/15 12:53:24;;;;;;;6.40;1.35;;;;;;;8.60;61.24;99771.16;3603571;39;20381;-63
2023/01/15 12:56:23;;;;;;;4.25;1.23;;;;;;;8.66;62.17;99785.94;3605152;39;20050;-63
2023/01/15 12:59:30;;;;;;;2.42;0.95;;;;;;;8.71;61.46;99766.84;3605795;39;20058;-63
2023/01/15 13:02:56;;;;;;;5.88;1.40;;;;;;;8.57;61.67;99744.59;3589347;39;20059;-63
2023/01/15 13:05:40;;;;;;;3.55;0.95;;;;;;;8.64;60.76;99750.38;3597094;39;20058;-62
2023/01/15 13:08:33;;;;;;;3.03;0.70;;;;;;;8.71;60.59;99761.50;3604316;39;20046;-63
2023/01/15 13:10:59;;;;;;;3.85;1.02;;;;;;;8.67;60.97;99762.69;3605523;39;20143;-62